sensor_id;sensor_type;location;lat;lon;timestamp;P1;durP1;ratioP1;P2;durP2;ratioP2
44981;SDS011;30716;41.740;-70.400;2022-07-25T00:01:50;3.03;;;2.00;;
44981;SDS011;30716;41.740;-70.400;2022-07-25T00:04:16;3.88;;;2.70;;
44981;SDS011;30716;41.740;-70.400;2022-07-25T00:06:42;3.20;;;2.20;;
44981;SDS011;30716;41.740;-70.400;2022-07-25T00:09:09;2.88;;;2.30;;
44981;SDS011;30716;41.740;-70.400;2022-07-25T00:11:35;3.40;;;2.20;;
44981;SDS011;30716;41.740;-70.400;2022-07-25T00:14:02;3.28;;;2.47;;
44981;SDS011;30716;41.740;-70.400;2022-07-25T00:16:28;4.35;;;2.30;;
44981;SDS011;30716;41.740;-70.400;2022-07-25T00:18:55;3.58;;;2.47;;
44981;SDS011;30716;41.740;-70.400;2022-07-25T00:21:21;4.10;;;2.75;;
44981;SDS011;30716;41.740;-70.400;2022-07-25T00:23:47;3.78;;;2.63;;
44981;SDS011;30716;41.740;-70.400;2022-07-25T00:26:13;3.72;;;2.50;;
44981;SDS011;30716;41.740;-70.400;2022-07-25T00:28:41;3.35;;;2.70;;
44981;SDS011;30716;41.740;-70.400;2022-07-25T00:31:08;3.67;;;2.58;;
44981;SDS011;30716;41.740;-70.400;2022-07-25T00:33:34;3.95;;;2.40;;
44981;SDS011;30716;41.740;-70.400;2022-07-25T00:36:01;4.43;;;2.92;;
44981;SDS011;30716;41.740;-70.400;2022-07-25T00:38:27;4.15;;;3.03;;
44981;SDS011;30716;41.740;-70.400;2022-07-25T00:40:53;3.85;;;2.58;;
44981;SDS011;30716;41.740;-70.400;2022-07-25T00:43:20;3.42;;;2.55;;
44981;SDS011;30716;41.740;-70.400;2022-07-25T00:45:46;4.38;;;2.80;;
44981;SDS011;30716;41.740;-70.400;2022-07-25T00:48:12;3.47;;;2.70;;
44981;SDS011;30716;41.740;-70.400;2022-07-25T00:50:38;4.00;;;2.60;;
44981;SDS011;30716;41.740;-70.400;2022-07-25T00:53:04;4.00;;;3.17;;
44981;SDS011;30716;41.740;-70.400;2022-07-25T00:55:31;3.92;;;2.78;;
44981;SDS011;30716;41.740;-70.400;2022-07-25T00:57:58;3.45;;;2.65;;
44981;SDS011;30716;41.740;-70.400;2022-07-25T01:00:24;3.92;;;2.95;;
44981;SDS011;30716;41.740;-70.400;2022-07-25T01:02:50;5.38;;;3.65;;
44981;SDS011;30716;41.740;-70.400;2022-07-25T01:05:16;4.07;;;2.63;;
44981;SDS011;30716;41.740;-70.400;2022-07-25T01:07:42;3.78;;;2.90;;
44981;SDS011;30716;41.740;-70.400;2022-07-25T01:10:09;4.60;;;3.17;;
44981;SDS011;30716;41.740;-70.400;2022-07-25T01:12:49;4.57;;;3.22;;
44981;SDS011;30716;41.740;-70.400;2022-07-25T01:15:20;3.47;;;2.65;;
44981;SDS011;30716;41.740;-70.400;2022-07-25T01:17:47;4.03;;;2.85;;
44981;SDS011;30716;41.740;-70.400;2022-07-25T01:20:17;3.85;;;2.70;;
44981;SDS011;30716;41.740;-70.400;2022-07-25T01:22:44;4.35;;;3.10;;
44981;SDS011;30716;41.740;-70.400;2022-07-25T01:25:11;3.83;;;2.90;;
44981;SDS011;30716;41.740;-70.400;2022-07-25T01:27:38;4.85;;;3.58;;
44981;SDS011;30716;41.740;-70.400;2022-07-25T01:30:06;4.15;;;3.15;;
44981;SDS011;30716;41.740;-70.400;2022-07-25T01:32:34;3.42;;;2.75;;
44981;SDS011;30716;41.740;-70.400;2022-07-25T01:35:01;5.50;;;3.50;;
44981;SDS011;30716;41.740;-70.400;2022-07-25T01:37:28;4.18;;;3.15;;
44981;SDS011;30716;41.740;-70.400;2022-07-25T01:39:54;4.30;;;2.97;;
44981;SDS011;30716;41.740;-70.400;2022-07-25T01:42:21;4.80;;;3.17;;
44981;SDS011;30716;41.740;-70.400;2022-07-25T01:44:47;5.00;;;3.28;;
44981;SDS011;30716;41.740;-70.400;2022-07-25T01:47:13;3.75;;;3.35;;
44981;SDS011;30716;41.740;-70.400;2022-07-25T01:49:41;4.90;;;3.42;;
44981;SDS011;30716;41.740;-70.400;2022-07-25T01:52:08;4.53;;;3.42;;
44981;SDS011;30716;41.740;-70.400;2022-07-25T01:54:35;4.85;;;3.15;;
44981;SDS011;30716;41.740;-70.400;2022-07-25T01:57:01;4.63;;;3.35;;
44981;SDS011;30716;41.740;-70.400;2022-07-25T01:59:28;3.83;;;3.00;;
44981;SDS011;30716;41.740;-70.400;2022-07-25T02:01:54;5.00;;;3.10;;
44981;SDS011;30716;41.740;-70.400;2022-07-25T02:04:21;4.60;;;3.28;;
44981;SDS011;30716;41.740;-70.400;2022-07-25T02:06:47;4.53;;;3.10;;
44981;SDS011;30716;41.740;-70.400;2022-07-25T02:09:13;4.30;;;2.83;;
44981;SDS011;30716;41.740;-70.400;2022-07-25T02:11:40;4.32;;;3.00;;
44981;SDS011;30716;41.740;-70.400;2022-07-25T02:14:06;4.50;;;3.00;;
44981;SDS011;30716;41.740;-70.400;2022-07-25T02:16:32;4.18;;;3.40;;
44981;SDS011;30716;41.740;-70.400;2022-07-25T02:18:58;3.92;;;3.33;;
44981;SDS011;30716;41.740;-70.400;2022-07-25T02:21:24;4.72;;;3.42;;
44981;SDS011;30716;41.740;-70.400;2022-07-25T02:23:50;5.72;;;3.80;;
44981;SDS011;30716;41.740;-70.400;2022-07-25T02:26:16;4.15;;;3.15;;
44981;SDS011;30716;41.740;-70.400;2022-07-25T02:28:43;4.05;;;3.10;;
44981;SDS011;30716;41.740;-70.400;2022-07-25T02:31:09;5.85;;;3.20;;
44981;SDS011;30716;41.740;-70.400;2022-07-25T02:33:35;4.57;;;3.00;;
44981;SDS011;30716;41.740;-70.400;2022-07-25T02:36:01;4.05;;;2.95;;
44981;SDS011;30716;41.740;-70.400;2022-07-25T02:38:28;4.32;;;3.10;;
44981;SDS011;30716;41.740;-70.400;2022-07-25T02:40:54;4.43;;;2.97;;
44981;SDS011;30716;41.740;-70.400;2022-07-25T02:43:20;4.90;;;3.47;;
44981;SDS011;30716;41.740;-70.400;2022-07-25T02:45:46;6.45;;;3.83;;
44981;SDS011;30716;41.740;-70.400;2022-07-25T02:48:12;5.25;;;3.78;;
44981;SDS011;30716;41.740;-70.400;2022-07-25T02:50:39;4.95;;;3.38;;
44981;SDS011;30716;41.740;-70.400;2022-07-25T02:53:05;4.18;;;3.10;;
44981;SDS011;30716;41.740;-70.400;2022-07-25T02:55:31;5.15;;;3.67;;
44981;SDS011;30716;41.740;-70.400;2022-07-25T02:57:57;4.53;;;2.90;;
44981;SDS011;30716;41.740;-70.400;2022-07-25T03:00:24;4.78;;;3.60;;
44981;SDS011;30716;41.740;-70.400;2022-07-25T03:02:50;4.22;;;3.28;;
44981;SDS011;30716;41.740;-70.400;2022-07-25T03:05:16;4.13;;;3.30;;
44981;SDS011;30716;41.740;-70.400;2022-07-25T03:07:42;3.88;;;2.72;;
44981;SDS011;30716;41.740;-70.400;2022-07-25T03:10:10;4.10;;;3.08;;
44981;SDS011;30716;41.740;-70.400;2022-07-25T03:12:37;4.80;;;3.40;;
44981;SDS011;30716;41.740;-70.400;2022-07-25T03:15:04;5.25;;;3.33;;
44981;SDS011;30716;41.740;-70.400;2022-07-25T03:17:31;4.80;;;3.42;;
44981;SDS011;30716;41.740;-70.400;2022-07-25T03:19:57;4.00;;;2.95;;
44981;SDS011;30716;41.740;-70.400;2022-07-25T03:22:24;5.57;;;3.03;;
44981;SDS011;30716;41.740;-70.400;2022-07-25T03:24:50;4.15;;;2.92;;
44981;SDS011;30716;41.740;-70.400;2022-07-25T03:27:20;4.47;;;3.25;;
44981;SDS011;30716;41.740;-70.400;2022-07-25T03:29:46;5.35;;;3.63;;
44981;SDS011;30716;41.740;-70.400;2022-07-25T03:32:12;4.82;;;3.45;;
44981;SDS011;30716;41.740;-70.400;2022-07-25T03:34:39;6.15;;;3.28;;
44981;SDS011;30716;41.740;-70.400;2022-07-25T03:37:05;4.05;;;2.83;;
44981;SDS011;30716;41.740;-70.400;2022-07-25T03:39:31;5.10;;;3.47;;
44981;SDS011;30716;41.740;-70.400;2022-07-25T03:41:57;4.57;;;3.33;;
44981;SDS011;30716;41.740;-70.400;2022-07-25T03:44:24;4.38;;;3.08;;
44981;SDS011;30716;41.740;-70.400;2022-07-25T03:46:50;5.45;;;3.63;;
44981;SDS011;30716;41.740;-70.400;2022-07-25T03:49:17;4.45;;;3.00;;
44981;SDS011;30716;41.740;-70.400;2022-07-25T03:51:43;4.32;;;3.22;;
44981;SDS011;30716;41.740;-70.400;2022-07-25T03:54:10;4.32;;;3.13;;
44981;SDS011;30716;41.740;-70.400;2022-07-25T03:56:46;4.40;;;3.35;;
44981;SDS011;30716;41.740;-70.400;2022-07-25T03:59:14;4.03;;;2.88;;
44981;SDS011;30716;41.740;-70.400;2022-07-25T04:01:43;4.25;;;2.97;;
44981;SDS011;30716;41.740;-70.400;2022-07-25T04:04:10;4.15;;;3.08;;
44981;SDS011;30716;41.740;-70.400;2022-07-25T04:06:36;4.50;;;3.13;;
44981;SDS011;30716;41.740;-70.400;2022-07-25T04:09:03;3.65;;;2.75;;
44981;SDS011;30716;41.740;-70.400;2022-07-25T04:11:30;4.15;;;2.80;;
44981;SDS011;30716;41.740;-70.400;2022-07-25T04:13:57;4.32;;;2.90;;
44981;SDS011;30716;41.740;-70.400;2022-07-25T04:16:23;4.75;;;2.88;;
44981;SDS011;30716;41.740;-70.400;2022-07-25T04:18:50;4.15;;;2.85;;
44981;SDS011;30716;41.740;-70.400;2022-07-25T04:21:35;5.87;;;3.77;;
44981;SDS011;30716;41.740;-70.400;2022-07-25T04:24:01;7.53;;;3.95;;
44981;SDS011;30716;41.740;-70.400;2022-07-25T04:26:27;4.25;;;3.13;;
44981;SDS011;30716;41.740;-70.400;2022-07-25T04:28:54;3.53;;;3.22;;
44981;SDS011;30716;41.740;-70.400;2022-07-25T04:31:22;4.70;;;3.17;;
44981;SDS011;30716;41.740;-70.400;2022-07-25T04:33:49;3.88;;;2.92;;
44981;SDS011;30716;41.740;-70.400;2022-07-25T04:36:15;4.38;;;3.28;;
44981;SDS011;30716;41.740;-70.400;2022-07-25T04:38:41;3.72;;;2.97;;
44981;SDS011;30716;41.740;-70.400;2022-07-25T04:41:08;3.58;;;2.88;;
44981;SDS011;30716;41.740;-70.400;2022-07-25T04:43:34;4.47;;;3.10;;
44981;SDS011;30716;41.740;-70.400;2022-07-25T04:46:00;4.03;;;2.83;;
44981;SDS011;30716;41.740;-70.400;2022-07-25T04:48:26;4.45;;;2.90;;
44981;SDS011;30716;41.740;-70.400;2022-07-25T04:50:53;4.72;;;3.10;;
44981;SDS011;30716;41.740;-70.400;2022-07-25T04:53:19;3.45;;;2.42;;
44981;SDS011;30716;41.740;-70.400;2022-07-25T04:55:45;3.25;;;2.40;;
44981;SDS011;30716;41.740;-70.400;2022-07-25T04:58:11;4.15;;;2.97;;
44981;SDS011;30716;41.740;-70.400;2022-07-25T05:00:38;4.22;;;2.92;;
44981;SDS011;30716;41.740;-70.400;2022-07-25T05:03:04;3.80;;;2.80;;
44981;SDS011;30716;41.740;-70.400;2022-07-25T05:05:30;4.50;;;2.90;;
44981;SDS011;30716;41.740;-70.400;2022-07-25T05:07:57;5.43;;;3.42;;
44981;SDS011;30716;41.740;-70.400;2022-07-25T05:10:24;3.83;;;2.90;;
44981;SDS011;30716;41.740;-70.400;2022-07-25T05:12:51;3.97;;;2.80;;
44981;SDS011;30716;41.740;-70.400;2022-07-25T05:15:17;3.65;;;2.78;;
44981;SDS011;30716;41.740;-70.400;2022-07-25T05:17:44;3.83;;;3.15;;
44981;SDS011;30716;41.740;-70.400;2022-07-25T05:20:10;4.10;;;2.80;;
44981;SDS011;30716;41.740;-70.400;2022-07-25T05:22:37;3.67;;;2.58;;
44981;SDS011;30716;41.740;-70.400;2022-07-25T05:25:08;4.10;;;2.90;;
44981;SDS011;30716;41.740;-70.400;2022-07-25T05:27:35;4.32;;;3.15;;
44981;SDS011;30716;41.740;-70.400;2022-07-25T05:30:02;3.45;;;2.47;;
44981;SDS011;30716;41.740;-70.400;2022-07-25T05:32:30;4.22;;;2.75;;
44981;SDS011;30716;41.740;-70.400;2022-07-25T05:34:56;4.57;;;3.33;;
44981;SDS011;30716;41.740;-70.400;2022-07-25T05:37:22;3.85;;;2.45;;
44981;SDS011;30716;41.740;-70.400;2022-07-25T05:39:48;4.63;;;2.63;;
44981;SDS011;30716;41.740;-70.400;2022-07-25T05:42:14;3.83;;;2.63;;
44981;SDS011;30716;41.740;-70.400;2022-07-25T05:44:41;3.40;;;2.53;;
44981;SDS011;30716;41.740;-70.400;2022-07-25T05:47:10;3.50;;;2.70;;
44981;SDS011;30716;41.740;-70.400;2022-07-25T05:49:36;4.05;;;2.80;;
44981;SDS011;30716;41.740;-70.400;2022-07-25T05:52:03;3.90;;;3.00;;
44981;SDS011;30716;41.740;-70.400;2022-07-25T05:54:30;4.18;;;3.05;;
44981;SDS011;30716;41.740;-70.400;2022-07-25T05:56:56;3.83;;;2.88;;
44981;SDS011;30716;41.740;-70.400;2022-07-25T05:59:22;3.63;;;2.75;;
44981;SDS011;30716;41.740;-70.400;2022-07-25T06:01:48;4.35;;;2.72;;
44981;SDS011;30716;41.740;-70.400;2022-07-25T06:04:14;4.32;;;2.95;;
44981;SDS011;30716;41.740;-70.400;2022-07-25T06:06:40;4.43;;;2.67;;
44981;SDS011;30716;41.740;-70.400;2022-07-25T06:09:07;4.68;;;2.83;;
44981;SDS011;30716;41.740;-70.400;2022-07-25T06:11:33;3.25;;;2.25;;
44981;SDS011;30716;41.740;-70.400;2022-07-25T06:13:59;3.70;;;2.22;;
44981;SDS011;30716;41.740;-70.400;2022-07-25T06:16:25;3.45;;;2.63;;
44981;SDS011;30716;41.740;-70.400;2022-07-25T06:18:51;3.97;;;3.00;;
44981;SDS011;30716;41.740;-70.400;2022-07-25T06:21:17;4.50;;;2.72;;
44981;SDS011;30716;41.740;-70.400;2022-07-25T06:23:43;4.05;;;2.83;;
44981;SDS011;30716;41.740;-70.400;2022-07-25T06:26:09;3.90;;;2.65;;
44981;SDS011;30716;41.740;-70.400;2022-07-25T06:28:36;3.95;;;2.90;;
44981;SDS011;30716;41.740;-70.400;2022-07-25T06:31:02;3.35;;;2.50;;
44981;SDS011;30716;41.740;-70.400;2022-07-25T06:33:28;4.15;;;2.55;;
44981;SDS011;30716;41.740;-70.400;2022-07-25T06:35:55;3.17;;;2.30;;
44981;SDS011;30716;41.740;-70.400;2022-07-25T06:38:21;3.30;;;2.38;;
44981;SDS011;30716;41.740;-70.400;2022-07-25T06:40:47;3.15;;;2.35;;
44981;SDS011;30716;41.740;-70.400;2022-07-25T06:43:13;2.80;;;2.20;;
44981;SDS011;30716;41.740;-70.400;2022-07-25T06:45:39;3.70;;;2.60;;
44981;SDS011;30716;41.740;-70.400;2022-07-25T06:48:11;3.72;;;2.60;;
44981;SDS011;30716;41.740;-70.400;2022-07-25T06:50:40;3.35;;;2.60;;
44981;SDS011;30716;41.740;-70.400;2022-07-25T06:53:06;3.08;;;2.20;;
44981;SDS011;30716;41.740;-70.400;2022-07-25T06:55:33;4.88;;;2.65;;
44981;SDS011;30716;41.740;-70.400;2022-07-25T06:57:59;3.53;;;2.17;;
44981;SDS011;30716;41.740;-70.400;2022-07-25T07:00:25;3.58;;;2.80;;
44981;SDS011;30716;41.740;-70.400;2022-07-25T07:02:52;3.15;;;2.47;;
44981;SDS011;30716;41.740;-70.400;2022-07-25T07:05:21;3.83;;;2.17;;
44981;SDS011;30716;41.740;-70.400;2022-07-25T07:07:48;4.80;;;2.95;;
44981;SDS011;30716;41.740;-70.400;2022-07-25T07:10:15;3.65;;;2.63;;
44981;SDS011;30716;41.740;-70.400;2022-07-25T07:12:42;5.03;;;2.75;;
44981;SDS011;30716;41.740;-70.400;2022-07-25T07:15:09;3.53;;;2.50;;
44981;SDS011;30716;41.740;-70.400;2022-07-25T07:17:36;3.88;;;3.00;;
44981;SDS011;30716;41.740;-70.400;2022-07-25T07:20:03;3.53;;;2.97;;
44981;SDS011;30716;41.740;-70.400;2022-07-25T07:22:29;4.07;;;2.92;;
44981;SDS011;30716;41.740;-70.400;2022-07-25T07:24:56;3.42;;;2.38;;
44981;SDS011;30716;41.740;-70.400;2022-07-25T07:27:22;3.35;;;2.08;;
44981;SDS011;30716;41.740;-70.400;2022-07-25T07:29:49;3.42;;;2.38;;
44981;SDS011;30716;41.740;-70.400;2022-07-25T07:32:15;3.05;;;2.38;;
44981;SDS011;30716;41.740;-70.400;2022-07-25T07:34:41;3.35;;;2.33;;
44981;SDS011;30716;41.740;-70.400;2022-07-25T07:37:07;3.78;;;2.15;;
44981;SDS011;30716;41.740;-70.400;2022-07-25T07:39:33;4.28;;;2.47;;
44981;SDS011;30716;41.740;-70.400;2022-07-25T07:41:59;4.32;;;3.00;;
44981;SDS011;30716;41.740;-70.400;2022-07-25T07:44:25;3.25;;;2.58;;
44981;SDS011;30716;41.740;-70.400;2022-07-25T07:46:51;3.47;;;2.70;;
44981;SDS011;30716;41.740;-70.400;2022-07-25T07:49:18;3.00;;;2.33;;
44981;SDS011;30716;41.740;-70.400;2022-07-25T07:51:44;3.92;;;2.35;;
44981;SDS011;30716;41.740;-70.400;2022-07-25T07:54:10;4.05;;;2.50;;
44981;SDS011;30716;41.740;-70.400;2022-07-25T07:56:54;3.78;;;2.20;;
44981;SDS011;30716;41.740;-70.400;2022-07-25T07:59:20;3.78;;;2.35;;
44981;SDS011;30716;41.740;-70.400;2022-07-25T08:01:46;3.45;;;2.83;;
44981;SDS011;30716;41.740;-70.400;2022-07-25T08:04:12;3.67;;;2.53;;
44981;SDS011;30716;41.740;-70.400;2022-07-25T08:06:39;3.85;;;2.33;;
44981;SDS011;30716;41.740;-70.400;2022-07-25T08:09:07;4.35;;;2.50;;
44981;SDS011;30716;41.740;-70.400;2022-07-25T08:11:33;4.00;;;2.28;;
44981;SDS011;30716;41.740;-70.400;2022-07-25T08:13:59;3.58;;;1.85;;
44981;SDS011;30716;41.740;-70.400;2022-07-25T08:16:25;3.30;;;2.40;;
44981;SDS011;30716;41.740;-70.400;2022-07-25T08:18:51;3.25;;;2.35;;
44981;SDS011;30716;41.740;-70.400;2022-07-25T08:21:17;2.80;;;2.00;;
44981;SDS011;30716;41.740;-70.400;2022-07-25T08:23:44;3.78;;;2.65;;
44981;SDS011;30716;41.740;-70.400;2022-07-25T08:26:11;5.53;;;3.00;;
44981;SDS011;30716;41.740;-70.400;2022-07-25T08:28:38;3.45;;;1.98;;
44981;SDS011;30716;41.740;-70.400;2022-07-25T08:31:05;2.88;;;2.40;;
44981;SDS011;30716;41.740;-70.400;2022-07-25T08:33:34;2.83;;;2.20;;
44981;SDS011;30716;41.740;-70.400;2022-07-25T08:36:01;3.88;;;2.05;;
44981;SDS011;30716;41.740;-70.400;2022-07-25T08:38:27;3.30;;;2.28;;
44981;SDS011;30716;41.740;-70.400;2022-07-25T08:40:53;4.10;;;2.60;;
44981;SDS011;30716;41.740;-70.400;2022-07-25T08:43:20;3.13;;;2.00;;
44981;SDS011;30716;41.740;-70.400;2022-07-25T08:45:48;3.20;;;2.10;;
44981;SDS011;30716;41.740;-70.400;2022-07-25T08:48:16;5.45;;;3.08;;
44981;SDS011;30716;41.740;-70.400;2022-07-25T08:50:44;3.95;;;2.45;;
44981;SDS011;30716;41.740;-70.400;2022-07-25T08:53:12;4.20;;;2.60;;
44981;SDS011;30716;41.740;-70.400;2022-07-25T08:55:40;2.75;;;2.10;;
44981;SDS011;30716;41.740;-70.400;2022-07-25T08:58:09;3.20;;;2.20;;
44981;SDS011;30716;41.740;-70.400;2022-07-25T09:00:37;3.00;;;2.10;;
44981;SDS011;30716;41.740;-70.400;2022-07-25T09:03:04;3.25;;;2.20;;
44981;SDS011;30716;41.740;-70.400;2022-07-25T09:05:31;2.50;;;1.90;;
44981;SDS011;30716;41.740;-70.400;2022-07-25T09:08:05;3.20;;;2.50;;
44981;SDS011;30716;41.740;-70.400;2022-07-25T09:10:43;2.92;;;2.25;;
44981;SDS011;30716;41.740;-70.400;2022-07-25T09:13:12;2.92;;;2.00;;
44981;SDS011;30716;41.740;-70.400;2022-07-25T09:15:39;4.15;;;2.30;;
44981;SDS011;30716;41.740;-70.400;2022-07-25T09:18:09;3.40;;;2.30;;
44981;SDS011;30716;41.740;-70.400;2022-07-25T09:23:09;4.07;;;2.25;;
44981;SDS011;30716;41.740;-70.400;2022-07-25T09:25:36;2.90;;;2.10;;
44981;SDS011;30716;41.740;-70.400;2022-07-25T09:28:38;3.28;;;2.00;;
44981;SDS011;30716;41.740;-70.400;2022-07-25T09:30:58;3.45;;;2.22;;
44981;SDS011;30716;41.740;-70.400;2022-07-25T09:33:26;3.15;;;1.80;;
44981;SDS011;30716;41.740;-70.400;2022-07-25T09:35:54;3.55;;;2.22;;
44981;SDS011;30716;41.740;-70.400;2022-07-25T09:38:21;3.03;;;2.05;;
44981;SDS011;30716;41.740;-70.400;2022-07-25T09:40:55;3.65;;;1.88;;
44981;SDS011;30716;41.740;-70.400;2022-07-25T09:43:33;3.00;;;2.22;;
44981;SDS011;30716;41.740;-70.400;2022-07-25T09:46:01;3.00;;;2.22;;
44981;SDS011;30716;41.740;-70.400;2022-07-25T09:48:27;3.17;;;2.08;;
44981;SDS011;30716;41.740;-70.400;2022-07-25T09:50:53;2.78;;;1.73;;
44981;SDS011;30716;41.740;-70.400;2022-07-25T09:53:20;3.60;;;1.85;;
44981;SDS011;30716;41.740;-70.400;2022-07-25T09:55:46;2.78;;;2.10;;
44981;SDS011;30716;41.740;-70.400;2022-07-25T09:58:12;4.10;;;2.10;;
44981;SDS011;30716;41.740;-70.400;2022-07-25T10:00:39;3.03;;;1.67;;
44981;SDS011;30716;41.740;-70.400;2022-07-25T10:03:14;3.80;;;1.90;;
44981;SDS011;30716;41.740;-70.400;2022-07-25T10:06:01;3.33;;;2.20;;
44981;SDS011;30716;41.740;-70.400;2022-07-25T10:08:49;2.95;;;1.80;;
44981;SDS011;30716;41.740;-70.400;2022-07-25T10:11:19;2.35;;;1.50;;
44981;SDS011;30716;41.740;-70.400;2022-07-25T10:13:52;2.60;;;1.80;;
44981;SDS011;30716;41.740;-70.400;2022-07-25T10:16:22;3.13;;;1.90;;
44981;SDS011;30716;41.740;-70.400;2022-07-25T10:21:20;3.03;;;2.00;;
44981;SDS011;30716;41.740;-70.400;2022-07-25T10:24:06;3.20;;;2.05;;
44981;SDS011;30716;41.740;-70.400;2022-07-25T10:26:38;2.90;;;1.75;;
44981;SDS011;30716;41.740;-70.400;2022-07-25T10:29:15;2.95;;;1.88;;
44981;SDS011;30716;41.740;-70.400;2022-07-25T10:31:42;2.45;;;1.77;;
44981;SDS011;30716;41.740;-70.400;2022-07-25T10:34:12;4.43;;;2.15;;
44981;SDS011;30716;41.740;-70.400;2022-07-25T10:36:40;2.50;;;1.90;;
44981;SDS011;30716;41.740;-70.400;2022-07-25T10:39:07;3.35;;;2.25;;
44981;SDS011;30716;41.740;-70.400;2022-07-25T10:41:39;2.78;;;1.77;;
44981;SDS011;30716;41.740;-70.400;2022-07-25T10:44:11;4.38;;;1.70;;
44981;SDS011;30716;41.740;-70.400;2022-07-25T10:46:38;3.53;;;1.90;;
44981;SDS011;30716;41.740;-70.400;2022-07-25T10:49:08;3.50;;;1.60;;
44981;SDS011;30716;41.740;-70.400;2022-07-25T10:51:51;2.33;;;1.70;;
44981;SDS011;30716;41.740;-70.400;2022-07-25T10:54:33;2.50;;;1.80;;
44981;SDS011;30716;41.740;-70.400;2022-07-25T10:57:01;2.25;;;1.65;;
44981;SDS011;30716;41.740;-70.400;2022-07-25T10:59:35;2.72;;;1.60;;
44981;SDS011;30716;41.740;-70.400;2022-07-25T11:02:03;3.40;;;2.00;;
44981;SDS011;30716;41.740;-70.400;2022-07-25T11:04:31;3.10;;;2.05;;
44981;SDS011;30716;41.740;-70.400;2022-07-25T11:07:11;2.58;;;1.95;;
44981;SDS011;30716;41.740;-70.400;2022-07-25T11:09:40;2.30;;;1.42;;
44981;SDS011;30716;41.740;-70.400;2022-07-25T11:12:07;2.22;;;1.58;;
44981;SDS011;30716;41.740;-70.400;2022-07-25T11:14:35;3.55;;;1.70;;
44981;SDS011;30716;41.740;-70.400;2022-07-25T11:17:10;3.58;;;1.77;;
44981;SDS011;30716;41.740;-70.400;2022-07-25T11:20:01;2.78;;;1.58;;
44981;SDS011;30716;41.740;-70.400;2022-07-25T11:22:30;3.95;;;1.75;;
44981;SDS011;30716;41.740;-70.400;2022-07-25T11:24:57;2.72;;;1.50;;
44981;SDS011;30716;41.740;-70.400;2022-07-25T11:27:27;2.17;;;1.33;;
44981;SDS011;30716;41.740;-70.400;2022-07-25T11:30:05;2.93;;;1.77;;
44981;SDS011;30716;41.740;-70.400;2022-07-25T11:32:46;3.50;;;1.80;;
44981;SDS011;30716;41.740;-70.400;2022-07-25T11:35:27;2.50;;;1.70;;
44981;SDS011;30716;41.740;-70.400;2022-07-25T11:37:55;2.50;;;1.77;;
44981;SDS011;30716;41.740;-70.400;2022-07-25T11:40:23;3.80;;;1.90;;
44981;SDS011;30716;41.740;-70.400;2022-07-25T11:42:54;2.03;;;1.30;;
44981;SDS011;30716;41.740;-70.400;2022-07-25T11:45:25;2.13;;;1.77;;
44981;SDS011;30716;41.740;-70.400;2022-07-25T11:48:06;3.33;;;1.57;;
44981;SDS011;30716;41.740;-70.400;2022-07-25T11:50:35;2.05;;;1.42;;
44981;SDS011;30716;41.740;-70.400;2022-07-25T11:53:04;1.63;;;1.33;;
44981;SDS011;30716;41.740;-70.400;2022-07-25T11:55:33;3.33;;;2.20;;
44981;SDS011;30716;41.740;-70.400;2022-07-25T11:58:02;2.00;;;1.50;;
44981;SDS011;30716;41.740;-70.400;2022-07-25T12:00:29;2.33;;;1.48;;
44981;SDS011;30716;41.740;-70.400;2022-07-25T12:03:05;2.53;;;1.40;;
44981;SDS011;30716;41.740;-70.400;2022-07-25T12:05:33;3.22;;;1.80;;
44981;SDS011;30716;41.740;-70.400;2022-07-25T12:08:06;3.83;;;1.70;;
44981;SDS011;30716;41.740;-70.400;2022-07-25T12:10:37;2.90;;;1.45;;
44981;SDS011;30716;41.740;-70.400;2022-07-25T12:13:04;2.33;;;1.30;;
44981;SDS011;30716;41.740;-70.400;2022-07-25T12:18:03;2.30;;;1.50;;
44981;SDS011;30716;41.740;-70.400;2022-07-25T12:20:34;2.40;;;1.52;;
44981;SDS011;30716;41.740;-70.400;2022-07-25T12:25:34;2.83;;;1.50;;
44981;SDS011;30716;41.740;-70.400;2022-07-25T12:28:01;3.03;;;1.60;;
44981;SDS011;30716;41.740;-70.400;2022-07-25T12:30:28;2.30;;;1.38;;
44981;SDS011;30716;41.740;-70.400;2022-07-25T12:32:56;3.25;;;1.77;;
44981;SDS011;30716;41.740;-70.400;2022-07-25T12:35:23;2.50;;;1.70;;
44981;SDS011;30716;41.740;-70.400;2022-07-25T12:37:50;2.55;;;1.50;;
44981;SDS011;30716;41.740;-70.400;2022-07-25T12:40:17;2.20;;;1.40;;
44981;SDS011;30716;41.740;-70.400;2022-07-25T12:42:44;2.78;;;1.40;;
44981;SDS011;30716;41.740;-70.400;2022-07-25T12:45:12;2.22;;;1.40;;
44981;SDS011;30716;41.740;-70.400;2022-07-25T12:47:41;3.00;;;1.70;;
44981;SDS011;30716;41.740;-70.400;2022-07-25T12:50:09;2.40;;;1.55;;
44981;SDS011;30716;41.740;-70.400;2022-07-25T12:52:35;2.15;;;1.40;;
44981;SDS011;30716;41.740;-70.400;2022-07-25T12:55:02;2.28;;;1.20;;
44981;SDS011;30716;41.740;-70.400;2022-07-25T12:57:33;1.90;;;1.10;;
44981;SDS011;30716;41.740;-70.400;2022-07-25T13:00:00;2.33;;;1.27;;
44981;SDS011;30716;41.740;-70.400;2022-07-25T13:02:28;1.70;;;1.20;;
44981;SDS011;30716;41.740;-70.400;2022-07-25T13:04:54;2.13;;;1.10;;
44981;SDS011;30716;41.740;-70.400;2022-07-25T13:07:20;3.28;;;1.45;;
44981;SDS011;30716;41.740;-70.400;2022-07-25T13:09:47;1.98;;;1.38;;
44981;SDS011;30716;41.740;-70.400;2022-07-25T13:12:13;2.83;;;1.58;;
44981;SDS011;30716;41.740;-70.400;2022-07-25T13:14:39;3.45;;;1.70;;
44981;SDS011;30716;41.740;-70.400;2022-07-25T13:17:05;2.95;;;1.30;;
44981;SDS011;30716;41.740;-70.400;2022-07-25T13:19:31;2.30;;;1.45;;
44981;SDS011;30716;41.740;-70.400;2022-07-25T13:21:57;2.85;;;1.77;;
44981;SDS011;30716;41.740;-70.400;2022-07-25T13:24:23;3.03;;;1.42;;
44981;SDS011;30716;41.740;-70.400;2022-07-25T13:26:50;3.35;;;1.80;;
44981;SDS011;30716;41.740;-70.400;2022-07-25T13:29:16;2.45;;;1.50;;
44981;SDS011;30716;41.740;-70.400;2022-07-25T13:31:42;2.25;;;1.40;;
44981;SDS011;30716;41.740;-70.400;2022-07-25T13:34:08;4.10;;;1.40;;
44981;SDS011;30716;41.740;-70.400;2022-07-25T13:36:35;3.35;;;1.55;;
44981;SDS011;30716;41.740;-70.400;2022-07-25T13:39:02;3.10;;;1.27;;
44981;SDS011;30716;41.740;-70.400;2022-07-25T13:41:29;2.05;;;1.20;;
44981;SDS011;30716;41.740;-70.400;2022-07-25T13:43:55;2.30;;;1.55;;
44981;SDS011;30716;41.740;-70.400;2022-07-25T13:46:22;2.35;;;1.40;;
44981;SDS011;30716;41.740;-70.400;2022-07-25T13:48:48;2.55;;;1.17;;
44981;SDS011;30716;41.740;-70.400;2022-07-25T13:51:14;2.67;;;1.45;;
44981;SDS011;30716;41.740;-70.400;2022-07-25T13:53:40;2.38;;;1.40;;
44981;SDS011;30716;41.740;-70.400;2022-07-25T13:56:09;2.30;;;1.48;;
44981;SDS011;30716;41.740;-70.400;2022-07-25T13:58:36;1.77;;;1.25;;
44981;SDS011;30716;41.740;-70.400;2022-07-25T14:01:02;2.30;;;1.38;;
44981;SDS011;30716;41.740;-70.400;2022-07-25T14:03:28;2.58;;;1.40;;
44981;SDS011;30716;41.740;-70.400;2022-07-25T14:05:54;2.22;;;1.10;;
44981;SDS011;30716;41.740;-70.400;2022-07-25T14:08:21;1.73;;;1.05;;
44981;SDS011;30716;41.740;-70.400;2022-07-25T14:10:47;4.13;;;1.70;;
44981;SDS011;30716;41.740;-70.400;2022-07-25T14:13:13;2.30;;;1.27;;
44981;SDS011;30716;41.740;-70.400;2022-07-25T14:15:39;2.40;;;1.10;;
44981;SDS011;30716;41.740;-70.400;2022-07-25T14:18:06;1.63;;;1.00;;
44981;SDS011;30716;41.740;-70.400;2022-07-25T14:20:32;2.38;;;1.38;;
44981;SDS011;30716;41.740;-70.400;2022-07-25T14:22:58;4.72;;;1.40;;
44981;SDS011;30716;41.740;-70.400;2022-07-25T14:25:24;2.38;;;1.08;;
44981;SDS011;30716;41.740;-70.400;2022-07-25T14:27:50;1.90;;;1.00;;
44981;SDS011;30716;41.740;-70.400;2022-07-25T14:30:16;2.05;;;1.27;;
44981;SDS011;30716;41.740;-70.400;2022-07-25T14:32:43;3.38;;;1.35;;
44981;SDS011;30716;41.740;-70.400;2022-07-25T14:35:09;2.28;;;1.17;;